Time;durP1;ratioP1;P1;durP2;ratioP2;P2;SDS_P1;SDS_P2;PMS_P1;PMS_P2;Temp;Humidity;BMP_temperature;BMP_pressure;BME280_temperature;BME280_humidity;BME280_pressure;Samples;Min_cycle;Max_cycle;Signal;HPM_P1;HPM_P2
2022/03/03 00:01:38;;;;;;;138.15;51.40;;;2.00;99.90;;;;;;4995443;28;20053;-76
2022/03/03 00:04:05;;;;;;;144.25;53.60;;;;;;;;;;5012870;28;20072;-75
2022/03/03 00:06:31;;;;;;;133.35;51.45;;;;;;;;;;5012879;28;20132;-76
2022/03/03 00:08:57;;;;;;;;;;;2.10;99.90;;;;;;4995564;28;20128;-75
2022/03/03 00:11:23;;;;;;;135.35;49.75;;;;;;;;;;5012614;28;20008;-76
2022/03/03 00:13:50;;;;;;;140.60;53.13;;;;;;;;;;4995271;28;20482;-76
2022/03/03 00:16:16;;;;;;;145.23;52.38;;;;;;;;;;4995065;28;20402;-76
2022/03/03 00:18:42;;;;;;;132.25;50.63;;;;;;;;;;5012806;28;20065;-76
2022/03/03 00:21:08;;;;;;;141.80;52.53;;;;;;;;;;5012566;28;20058;-75
2022/03/03 00:23:34;;;;;;;136.57;51.50;;;;;;;;;;5011413;28;20129;-76
2022/03/03 00:26:00;;;;;;;134.23;51.50;;;;;;;;;;5012476;28;20814;-75
2022/03/03 00:28:26;;;;;;;138.60;50.80;;;;;;;;;;5012412;28;20169;-75
2022/03/03 00:30:52;;;;;;;144.18;51.50;;;1.70;99.90;;;;;;5012254;28;20454;-75
2022/03/03 00:33:19;;;;;;;132.40;49.38;;;;;;;;;;5012383;28;20046;-75
2022/03/03 00:35:45;;;;;;;131.23;50.60;;;;;;;;;;4994429;28;20054;-75
2022/03/03 00:38:11;;;;;;;132.57;51.63;;;;;;;;;;5012111;28;20482;-74
2022/03/03 00:40:37;;;;;;;134.13;51.65;;;;;;;;;;5012386;28;20046;-76
2022/03/03 00:43:06;;;;;;;132.60;49.60;;;;;;;;;;5012260;28;20121;-75
2022/03/03 00:45:32;;;;;;;136.10;50.55;;;;;;;;;;5012176;28;20049;-75
2022/03/03 00:47:58;;;;;;;140.20;50.40;;;;;;;;;;5012312;28;20057;-75
2022/03/03 00:50:24;;;;;;;137.77;50.47;;;;;;;;;;5012293;28;20092;-75
2022/03/03 00:52:50;;;;;;;141.00;52.42;;;;;;;;;;5012013;28;20042;-76
2022/03/03 00:55:16;;;;;;;133.88;50.03;;;;;;;;;;5010939;28;20131;-74
2022/03/03 00:57:42;;;;;;;126.85;49.65;;;;;;;;;;5012079;28;20060;-75
2022/03/03 01:00:09;;;;;;;128.60;48.72;;;1.50;99.90;;;;;;5011843;28;20104;-75
2022/03/03 01:02:35;;;;;;;137.90;52.97;;;;;;;;;;5012233;28;20041;-75
2022/03/03 01:05:01;;;;;;;139.68;50.53;;;;;;;;;;5012195;28;20089;-75
2022/03/03 01:07:27;;;;;;;144.48;50.78;;;1.30;99.90;;;;;;5012078;28;20512;-75
2022/03/03 01:09:53;;;;;;;142.73;50.45;;;;;;;;;;5012080;28;20128;-75
2022/03/03 01:12:19;;;;;;;144.80;49.55;;;;;;;;;;5011859;28;20083;-75
2022/03/03 01:14:45;;;;;;;142.85;50.38;;;;;;;;;;5011842;28;20085;-76
2022/03/03 01:17:13;;;;;;;141.45;51.65;;;;;;;;;;5012087;28;20058;-75
2022/03/03 01:19:39;;;;;;;143.90;52.63;;;;;;;;;;5011749;28;20066;-75
2022/03/03 01:22:05;;;;;;;;;;;;;;;;;;5012419;28;20103;-75
2022/03/03 01:24:31;;;;;;;135.95;49.42;;;;;;;;;;5011939;28;19930;-75
2022/03/03 01:26:58;;;;;;;132.00;49.35;;;;;;;;;;5010547;28;20511;-75
2022/03/03 01:29:24;;;;;;;142.70;50.55;;;;;;;;;;4994199;28;20053;-76
2022/03/03 01:31:50;;;;;;;140.30;49.85;;;;;;;;;;5011779;28;20072;-75
2022/03/03 01:34:16;;;;;;;149.80;52.42;;;;;;;;;;5011853;28;20057;-75
2022/03/03 01:36:43;;;;;;;146.20;51.90;;;1.30;99.90;;;;;;4994288;28;20490;-75
2022/03/03 01:39:09;;;;;;;142.20;51.03;;;;;;;;;;5011735;28;20096;-75
2022/03/03 01:41:36;;;;;;;151.88;52.33;;;;;;;;;;5010379;28;20134;-76
2022/03/03 01:44:03;;;;;;;141.80;50.95;;;;;;;;;;5010594;28;20085;-75
2022/03/03 01:46:29;;;;;;;145.82;50.65;;;;;;;;;;5014354;28;20057;-76
2022/03/03 01:48:55;;;;;;;145.88;50.15;;;;;;;;;;5015345;28;20096;-77
2022/03/03 01:51:21;;;;;;;137.73;49.28;;;;;;;;;;4997697;28;20054;-75
2022/03/03 01:53:47;;;;;;;140.32;49.83;;;;;;;;;;5015163;28;20108;-74
2022/03/03 01:56:14;;;;;;;150.30;52.53;;;;;;;;;;4997483;28;20049;-76
2022/03/03 01:58:40;;;;;;;146.40;52.17;;;;;;;;;;5015030;28;20124;-77
2022/03/03 02:01:06;;;;;;;151.60;53.20;;;;;;;;;;5015165;28;20046;-76
2022/03/03 02:03:32;;;;;;;148.70;50.88;;;;;;;;;;5015208;28;20406;-75
2022/03/03 02:05:58;;;;;;;137.82;50.22;;;;;;;;;;5014920;28;20510;-75
2022/03/03 02:08:24;;;;;;;152.18;52.05;;;;;;;;;;5014900;28;20053;-76
2022/03/03 02:10:54;;;;;;;153.13;51.58;;;1.70;99.90;;;;;;4997157;28;20391;-76
2022/03/03 02:13:20;;;;;;;152.73;52.88;;;;;;;;;;5015034;28;20402;-75
2022/03/03 02:15:47;;;;;;;144.80;53.50;;;;;;;;;;5014735;28;20046;-76
2022/03/03 02:18:13;;;;;;;140.02;50.38;;;;;;;;;;5014783;28;20057;-76
2022/03/03 02:20:39;;;;;;;146.02;51.83;;;;;;;;;;5014733;28;20417;-77
2022/03/03 02:23:05;;;;;;;147.77;54.22;;;;;;;;;;5014610;28;20042;-76
2022/03/03 02:25:31;;;;;;;141.38;50.90;;;;;;;;;;5014488;28;20045;-75
2022/03/03 02:27:58;;;;;;;144.20;52.42;;;;;;;;;;5014567;28;20502;-76
2022/03/03 02:30:24;;;;;;;140.95;51.45;;;;;;;;;;5014713;28;20144;-75
2022/03/03 02:32:50;;;;;;;142.60;52.60;;;;;;;;;;5014284;28;20560;-76
2022/03/03 02:35:16;;;;;;;149.48;52.42;;;;;;;;;;5014500;28;20050;-76
2022/03/03 02:37:43;;;;;;;151.98;51.25;;;;;;;;;;5014248;28;20046;-75
2022/03/03 02:40:11;;;;;;;145.13;53.30;;;;;;;;;;5012892;28;20042;-75
2022/03/03 02:42:37;;;;;;;140.73;52.30;;;;;;;;;;5014389;28;20178;-75
2022/03/03 02:45:04;;;;;;;137.20;50.50;;;;;;;;;;4996992;28;20053;-75
2022/03/03 02:47:30;;;;;;;143.50;54.10;;;;;;;;;;5014233;28;20043;-75
2022/03/03 02:49:56;;;;;;;141.60;51.88;;;;;;;;;;5014185;28;20136;-76
2022/03/03 02:52:23;;;;;;;136.65;50.90;;;;;;;;;;5013997;28;20050;-75
2022/03/03 02:54:49;;;;;;;131.88;50.58;;;;;;;;;;5013899;28;20046;-74
2022/03/03 02:59:59;;;;;;;127.68;51.10;;;;;;;;;;5014095;28;20053;-76
2022/03/03 03:02:25;;;;;;;130.55;48.92;;;;;;;;;;5013881;28;20042;-76
2022/03/03 03:04:51;;;;;;;125.32;49.63;;;;;;;;;;5013879;28;20089;-76
2022/03/03 03:07:18;;;;;;;124.93;49.88;;;;;;;;;;4996108;28;20057;-73
2022/03/03 03:09:43;;;;;;;121.82;48.13;;;1.00;99.90;;;;;;5013937;28;20058;-75
2022/03/03 03:12:09;;;;;;;118.57;49.77;;;;;;;;;;5013588;28;20058;-76
2022/03/03 03:14:35;;;;;;;124.75;49.00;;;;;;;;;;4996404;28;20042;-76
2022/03/03 03:17:02;;;;;;;119.70;46.67;;;;;;;;;;5013554;28;20046;-76
2022/03/03 03:19:28;;;;;;;118.07;47.30;;;;;;;;;;5013584;28;20057;-76
2022/03/03 03:21:54;;;;;;;120.70;48.72;;;;;;;;;;5013711;28;20140;-76
2022/03/03 03:24:20;;;;;;;111.60;47.63;;;;;;;;;;5013583;28;20061;-75
2022/03/03 03:26:46;;;;;;;117.25;47.90;;;;;;;;;;5013694;28;20054;-76
2022/03/03 03:29:12;;;;;;;122.57;49.70;;;;;;;;;;5013429;28;20042;-77
2022/03/03 03:31:38;;;;;;;127.30;49.58;;;;;;;;;;5013380;28;20103;-75
2022/03/03 03:34:04;;;;;;;132.93;50.20;;;;;;;;;;5013273;28;20050;-76
2022/03/03 03:36:30;;;;;;;136.80;52.15;;;;;;;;;;5013067;28;20050;-76
2022/03/03 03:38:57;;;;;;;135.70;51.33;;;;;;;;;;5013490;28;20046;-76
2022/03/03 03:41:23;;;;;;;148.13;54.35;;;;;;;;;;4995584;28;20054;-75
2022/03/03 03:43:49;;;;;;;142.90;51.17;;;;;;;;;;5013236;28;20084;-75
2022/03/03 03:46:15;;;;;;;148.77;52.88;;;;;;;;;;5013160;28;20064;-75
2022/03/03 03:48:41;;;;;;;138.32;52.90;;;;;;;;;;5012990;28;20088;-75
2022/03/03 03:51:07;;;;;;;129.77;51.28;;;;;;;;;;5012986;28;20060;-75
2022/03/03 03:53:33;;;;;;;140.98;52.22;;;;;;;;;;5013157;28;20477;-75
2022/03/03 03:55:59;;;;;;;133.82;52.83;;;;;;;;;;5012798;28;20085;-75
2022/03/03 03:58:26;;;;;;;132.85;53.22;;;;;;;;;;5012950;28;20049;-75
2022/03/03 04:00:52;;;;;;;147.80;55.50;;;;;;;;;;5012887;28;20053;-75
2022/03/03 04:03:18;;;;;;;133.75;52.05;;;;;;;;;;5012747;28;20042;-75
2022/03/03 04:05:44;;;;;;;131.90;52.72;;;0.80;99.90;;;;;;5012682;28;20143;-75
2022/03/03 04:08:10;;;;;;;123.88;50.20;;;;;;;;;;4978767;28;20081;-75
2022/03/03 04:10:36;;;;;;;124.82;51.70;;;;;;;;;;5012193;28;20053;-74
2022/03/03 04:13:02;;;;;;;126.30;53.03;;;;;;;;;;4995017;28;20513;-75
2022/03/03 04:15:28;;;;;;;115.72;50.58;;;;;;;;;;5012548;28;20061;-75
2022/03/03 04:17:55;;;;;;;115.25;50.28;;;;;;;;;;5012644;28;20090;-74
2022/03/03 04:20:22;;;;;;;113.45;49.35;;;;;;;;;;4994781;28;20124;-75
2022/03/03 04:22:49;;;;;;;117.38;49.08;;;;;;;;;;5012733;28;20057;-74
2022/03/03 04:25:14;;;;;;;;;;;0.80;99.90;;;;;;5012971;28;20382;-74
2022/03/03 04:27:41;;;;;;;108.68;47.80;;;;;;;;;;5012574;28;19926;-74
2022/03/03 04:30:11;;;;;;;110.40;46.55;;;;;;;;;;5012443;28;20137;-75
2022/03/03 04:32:40;;;;;;;108.63;46.47;;;0.90;99.90;;;;;;5012284;28;20456;-74
2022/03/03 04:35:08;;;;;;;113.05;47.38;;;;;;;;;;4994775;28;20046;-75
2022/03/03 04:37:34;;;;;;;101.85;47.13;;;;;;;;;;5012637;28;20397;-74
2022/03/03 04:40:00;;;;;;;114.20;45.83;;;;;;;;;;5012366;28;20064;-74
2022/03/03 04:42:26;;;;;;;103.55;45.78;;;;;;;;;;5010959;28;20044;-74
2022/03/03 04:44:52;;;;;;;102.53;45.78;;;;;;;;;;5012221;28;20115;-75
2022/03/03 04:47:18;;;;;;;105.25;45.25;;;;;;;;;;5012055;28;20052;-74
2022/03/03 04:49:44;;;;;;;101.60;44.47;;;;;;;;;;5012275;28;20045;-74
2022/03/03 04:52:10;;;;;;;99.55;46.58;;;;;;;;;;4994585;28;20049;-74
2022/03/03 04:54:36;;;;;;;115.70;48.65;;;0.70;99.90;;;;;;5012142;28;20498;-74
2022/03/03 04:57:02;;;;;;;108.57;46.92;;;;;;;;;;5012107;28;20053;-74
2022/03/03 04:59:28;;;;;;;109.75;48.08;;;;;;;;;;4994396;28;20053;-74
2022/03/03 05:01:54;;;;;;;108.72;48.78;;;;;;;;;;4994593;28;20526;-74
2022/03/03 05:04:20;;;;;;;111.35;49.28;;;;;;;;;;5012228;28;20129;-73
2022/03/03 05:06:48;;;;;;;105.80;47.55;;;0.70;99.90;;;;;;4994822;28;20045;-74
2022/03/03 05:09:14;;;;;;;99.88;45.50;;;;;;;;;;5012062;28;20758;-74
2022/03/03 05:11:41;;;;;;;113.43;47.83;;;;;;;;;;5012089;28;20062;-74
2022/03/03 05:14:07;;;;;;;104.25;46.28;;;;;;;;;;5011924;28;20061;-74
2022/03/03 05:16:33;;;;;;;110.53;47.53;;;;;;;;;;4993975;28;20054;-74
2022/03/03 05:18:59;;;;;;;118.20;48.75;;;;;;;;;;5011942;28;20048;-74
2022/03/03 05:21:25;;;;;;;106.10;45.38;;;;;;;;;;5014627;28;20104;-73
2022/03/03 05:23:51;;;;;;;115.40;48.17;;;;;;;;;;5015760;28;20570;-73
2022/03/03 05:26:18;;;;;;;115.43;51.00;;;;;;;;;;5015703;28;20558;-74
2022/03/03 05:28:44;;;;;;;112.63;48.85;;;;;;;;;;4998015;28;20085;-74
2022/03/03 05:31:10;;;;;;;105.15;46.75;;;;;;;;;;5015489;28;20053;-74
2022/03/03 05:33:36;;;;;;;99.20;46.25;;;;;;;;;;4998119;28;20054;-73
2022/03/03 05:36:07;;;;;;;104.72;45.35;;;;;;;;;;5015523;28;20054;-74
2022/03/03 05:38:34;;;;;;;109.22;47.97;;;;;;;;;;5015556;28;20524;-73
2022/03/03 05:41:01;;;;;;;105.90;46.72;;;;;;;;;;4997782;28;20053;-73
2022/03/03 05:43:30;;;;;;;110.25;47.20;;;;;;;;;;5015319;28;20046;-73
2022/03/03 05:45:56;;;;;;;108.88;45.83;;;;;;;;;;5015319;28;20497;-73
2022/03/03 05:48:23;;;;;;;106.90;46.83;;;;;;;;;;5015554;28;20147;-73
2022/03/03 05:50:49;;;;;;;106.20;45.03;;;;;;;;;;5015426;28;20425;-73
2022/03/03 05:53:16;;;;;;;;;;;;;;;;;;5015604;28;20050;-73
2022/03/03 05:55:53;;;;;;;102.75;44.40;;;0.40;99.90;;;;;;5015224;28;19921;-73
2022/03/03 05:58:21;;;;;;;98.18;43.75;;;;;;;;;;5015055;28;20492;-73
2022/03/03 06:00:53;;;;;;;102.20;45.10;;;;;;;;;;5015142;28;20050;-73
2022/03/03 06:03:21;;;;;;;96.57;45.20;;;;;;;;;;5015231;28;20084;-73
2022/03/03 06:05:52;;;;;;;95.30;43.92;;;;;;;;;;5014991;28;20054;-73
2022/03/03 06:08:23;;;;;;;96.28;43.88;;;;;;;;;;4997387;28;20176;-73
2022/03/03 06:10:52;;;;;;;90.97;42.83;;;;;;;;;;5014803;28;20099;-73
2022/03/03 06:13:23;;;;;;;97.72;44.30;;;;;;;;;;5015212;28;20046;-73
2022/03/03 06:15:49;;;;;;;102.85;45.35;;;;;;;;;;4997166;28;20110;-73
2022/03/03 06:18:16;;;;;;;93.95;44.25;;;;;;;;;;5014521;28;20494;-73
2022/03/03 06:20:43;;;;;;;102.47;44.85;;;;;;;;;;4997018;28;20522;-73
2022/03/03 06:23:09;;;;;;;97.60;45.38;;;;;;;;;;5014532;28;20084;-73
2022/03/03 06:25:37;;;;;;;100.32;46.75;;;;;;;;;;5014770;28;20192;-73
2022/03/03 06:28:03;;;;;;;91.63;43.83;;;;;;;;;;5014540;28;20046;-73
2022/03/03 06:30:31;;;;;;;89.38;43.05;;;;;;;;;;4997322;28;20137;-73
2022/03/03 06:32:57;;;;;;;100.40;45.85;;;;;;;;;;4995648;28;20057;-73
2022/03/03 06:35:24;;;;;;;95.65;43.95;;;;;;;;;;5014348;28;20041;-73
2022/03/03 06:37:50;;;;;;;96.50;45.45;;;;;;;;;;5014329;28;20107;-74
2022/03/03 06:40:16;;;;;;;98.15;43.75;;;;;;;;;;5014436;28;20058;-73
2022/03/03 06:42:42;;;;;;;95.18;45.63;;;;;;;;;;5014694;28;20057;-73
2022/03/03 06:45:09;;;;;;;105.18;46.42;;;;;;;;;;5013063;28;20053;-73
2022/03/03 06:47:35;;;;;;;100.53;46.08;;;;;;;;;;4996974;28;20050;-73
2022/03/03 06:50:02;;;;;;;110.00;45.97;;;;;;;;;;5014146;28;20057;-73
2022/03/03 06:52:30;;;;;;;91.03;44.13;;;;;;;;;;5014001;28;20046;-73
2022/03/03 06:54:58;;;;;;;95.60;44.72;;;;;;;;;;5014083;28;20121;-73
2022/03/03 06:57:24;;;;;;;100.75;46.13;;;;;;;;;;4996683;28;20053;-73
2022/03/03 06:59:52;;;;;;;100.13;44.22;;;;;;;;;;5013947;28;20507;-72
2022/03/03 07:02:20;;;;;;;101.55;44.88;;;;;;;;;;5013932;28;20042;-73
2022/03/03 07:04:51;;;;;;;96.05;44.63;;;;;;;;;;5014012;28;20089;-73
2022/03/03 07:07:17;;;;;;;104.50;45.92;;;;;;;;;;5013888;28;20452;-73
2022/03/03 07:09:43;;;;;;;;;;;0.80;99.90;;;;;;5014400;28;20128;-73
2022/03/03 07:12:11;;;;;;;102.88;45.45;;;;;;;;;;5013612;28;20361;-73
2022/03/03 07:14:37;;;;;;;98.07;45.80;;;;;;;;;;4996364;28;20620;-73
2022/03/03 07:17:04;;;;;;;95.28;45.63;;;;;;;;;;5012381;28;20490;-73
2022/03/03 07:19:39;;;;;;;95.45;45.33;;;;;;;;;;5013436;28;20552;-73
2022/03/03 07:22:09;;;;;;;102.47;46.72;;;;;;;;;;5013756;28;20064;-74
2022/03/03 07:24:43;;;;;;;104.47;47.38;;;;;;;;;;5013499;28;20211;-73
2022/03/03 07:27:13;;;;;;;105.10;44.83;;;;;;;;;;5013642;28;20046;-73
2022/03/03 07:29:40;;;;;;;98.93;45.40;;;;;;;;;;5013357;28;20045;-73
2022/03/03 07:32:07;;;;;;;104.07;46.70;;;;;;;;;;5013114;28;20513;-73
2022/03/03 07:34:34;;;;;;;96.75;45.40;;;;;;;;;;4996005;28;20049;-73
2022/03/03 07:37:14;;;;;;;94.25;45.58;;;;;;;;;;5013317;28;20132;-73
2022/03/03 07:39:44;;;;;;;95.93;46.22;;;;;;;;;;5013321;28;20054;-73
2022/03/03 07:42:14;;;;;;;99.70;44.95;;;;;;;;;;5013125;28;20038;-73
2022/03/03 07:44:40;;;;;;;105.13;47.63;;;;;;;;;;5012886;28;20046;-73
2022/03/03 07:47:07;;;;;;;97.82;45.53;;;;;;;;;;5012892;28;20137;-73
2022/03/03 07:49:34;;;;;;;108.78;48.47;;;;;;;;;;5013088;28;20053;-73
2022/03/03 07:52:05;;;;;;;102.35;45.38;;;1.50;99.90;;;;;;5013004;28;20038;-73
2022/03/03 07:54:32;;;;;;;100.30;45.72;;;;;;;;;;5013006;28;20050;-73
2022/03/03 07:56:59;;;;;;;;;;;1.80;99.90;;;;;;4995978;28;20132;-72
2022/03/03 07:59:28;;;;;;;104.00;44.13;;;1.80;99.90;;;;;;4995086;28;20377;-73
2022/03/03 08:01:56;;;;;;;106.88;45.85;;;;;;;;;;5012996;28;20549;-73
2022/03/03 08:04:25;;;;;;;100.05;45.42;;;;;;;;;;5012723;28;20057;-73
2022/03/03 08:06:55;;;;;;;97.95;43.88;;;;;;;;;;5012888;28;20081;-73
2022/03/03 08:09:23;;;;;;;95.43;45.22;;;;;;;;;;4995091;28;20478;-72
2022/03/03 08:11:51;;;;;;;94.18;43.30;;;;;;;;;;5012444;28;20397;-73
2022/03/03 08:14:17;;;;;;;95.53;45.55;;;;;;;;;;5012925;28;20061;-73
2022/03/03 08:16:45;;;;;;;92.70;43.10;;;;;;;;;;5012654;28;20046;-73
2022/03/03 08:19:12;;;;;;;85.88;43.20;;;;;;;;;;5012701;28;20057;-73
2022/03/03 08:21:38;;;;;;;102.70;43.55;;;;;;;;;;4994902;28;20062;-72
2022/03/03 08:24:04;;;;;;;95.72;45.45;;;;;;;;;;4980380;28;20077;-73
2022/03/03 08:26:30;;;;;;;91.45;43.88;;;;;;;;;;4997453;28;20054;-74
2022/03/03 08:28:57;;;;;;;89.07;43.30;;;;;;;;;;4972440;28;20065;-72
2022/03/03 08:31:32;;;;;;;92.10;43.38;;;;;;;;;;4994275;28;20050;-72
2022/03/03 08:34:03;;;;;;;119.10;46.25;;;;;;;;;;5002073;28;20391;-71
2022/03/03 08:36:44;;;;;;;115.10;44.28;;;;;;;;;;4994460;28;20046;-71
2022/03/03 08:39:10;;;;;;;135.38;46.40;;;;;;;;;;4999993;28;20498;-72
2022/03/03 08:41:38;;;;;;;89.88;43.22;;;;;;;;;;4999646;28;20872;-71
2022/03/03 08:44:05;;;;;;;85.93;42.33;;;;;;;;;;5000047;28;20054;-71
2022/03/03 08:46:33;;;;;;;85.50;42.05;;;;;;;;;;5000067;28;20085;-71
2022/03/03 08:49:00;;;;;;;83.85;39.60;;;;;;;;;;4986620;28;20042;-71
2022/03/03 08:51:27;;;;;;;80.25;38.92;;;;;;;;;;4996790;28;20065;-72
2022/03/03 08:53:53;;;;;;;74.95;38.38;;;;;;;;;;4985755;28;20169;-72
2022/03/03 08:56:19;;;;;;;75.80;40.38;;;;;;;;;;4998397;28;20058;-72
2022/03/03 08:58:45;;;;;;;82.07;41.15;;;;;;;;;;4983442;28;20062;-73
2022/03/03 09:01:11;;;;;;;;;;;;;;;;;;5000795;28;20165;-73
2022/03/03 09:03:40;;;;;;;65.60;35.95;;;;;;;;;;4997863;28;20024;-71
2022/03/03 09:06:06;;;;;;;70.68;38.08;;;3.60;99.90;;;;;;4995176;28;20054;-73
2022/03/03 09:08:32;;;;;;;74.50;37.50;;;;;;;;;;4993327;28;20526;-73
2022/03/03 09:10:58;;;;;;;73.70;36.05;;;;;;;;;;4975031;28;20504;-77
2022/03/03 09:13:24;;;;;;;65.35;36.15;;;3.90;99.90;;;;;;4992203;28;20046;-76
2022/03/03 09:15:52;;;;;;;65.68;33.55;;;;;;;;;;4992254;28;20482;-90
2022/03/03 09:18:18;;;;;;;64.70;34.17;;;;;;;;;;4992006;28;20052;-74
2022/03/03 09:20:44;;;;;;;67.95;35.55;;;;;;;;;;4991945;28;20128;-80
2022/03/03 09:23:09;;;;;;;66.95;34.60;;;4.40;99.90;;;;;;4992211;28;20060;-79
2022/03/03 09:25:36;;;;;;;65.15;33.75;;;4.30;99.90;;;;;;4992163;28;20526;-75
2022/03/03 09:28:04;;;;;;;59.20;32.65;;;4.40;99.90;;;;;;4992266;28;20090;-73
2022/03/03 09:30:30;;;;;;;60.45;32.42;;;;;;;;;;4974785;28;20450;-78
2022/03/03 09:32:56;;;;;;;59.20;32.10;;;;;;;;;;4992025;28;20046;-74
2022/03/03 09:35:22;;;;;;;59.50;31.30;;;;;;;;;;4991779;28;20054;-78
2022/03/03 09:37:48;;;;;;;55.90;29.48;;;;;;;;;;4974882;28;20479;-77
2022/03/03 09:40:14;;;;;;;57.53;31.33;;;4.80;99.90;;;;;;4992168;28;20439;-80
2022/03/03 09:42:40;;;;;;;56.55;30.85;;;5.00;99.90;;;;;;4991943;28;20046;-79
2022/03/03 09:45:07;;;;;;;53.67;30.63;;;;;;;;;;4992249;28;20042;-76
2022/03/03 09:47:35;;;;;;;54.65;30.52;;;5.10;99.90;;;;;;4991665;28;20104;-78
2022/03/03 09:50:01;;;;;;;54.80;29.80;;;5.10;99.90;;;;;;4992125;28;20050;-86
2022/03/03 09:52:28;;;;;;;52.13;30.02;;;5.40;99.90;;;;;;4991974;28;20047;-87
2022/03/03 09:54:55;;;;;;;53.05;29.90;;;5.40;99.90;;;;;;4992022;28;20081;-84
2022/03/03 09:57:21;;;;;;;46.53;28.23;;;5.50;99.90;;;;;;4974619;28;20054;-79
2022/03/03 09:59:47;;;;;;;51.38;28.33;;;5.90;99.90;;;;;;4991899;28;20050;-76
2022/03/03 10:02:14;;;;;;;50.80;28.92;;;;;;;;;;4991937;28;20046;-77
2022/03/03 10:04:39;;;;;;;;;;;6.20;99.90;;;;;;4992231;28;20050;-82
2022/03/03 10:07:07;;;;;;;45.00;27.13;;;6.20;99.90;;;;;;4993113;28;19991;-81
2022/03/03 10:09:59;;;;;;;41.50;25.45;;;6.30;99.90;;;;;;4995095;28;20066;-78
2022/03/03 10:12:21;;;;;;;46.83;26.55;;;6.30;99.90;;;;;;4977770;28;20046;-76
2022/03/03 10:14:48;;;;;;;41.90;25.33;;;6.40;99.90;;;;;;4995190;28;20050;-80
2022/03/03 10:17:15;;;;;;;41.90;24.63;;;6.60;99.90;;;;;;4994932;28;20054;-82
2022/03/03 10:19:52;;;;;;;44.67;25.65;;;6.70;99.90;;;;;;4995021;28;20046;-80
2022/03/03 10:22:22;;;;;;;41.22;24.00;;;6.70;99.90;;;;;;4995105;28;20057;-82
2022/03/03 10:24:51;;;;;;;40.65;23.88;;;6.80;99.90;;;;;;4977558;28;20598;-79
2022/03/03 10:27:19;;;;;;;39.88;23.42;;;6.90;99.90;;;;;;4977409;28;20101;-79
2022/03/03 10:29:48;;;;;;;35.33;23.00;;;6.70;99.90;;;;;;4994974;28;20066;-85
2022/03/03 10:32:22;;;;;;;38.42;23.02;;;;;;;;;;4983278;28;20046;-84
2022/03/03 10:34:49;;;;;;;36.60;22.52;;;7.20;99.90;;;;;;4994977;28;20459;-88
2022/03/03 10:37:21;;;;;;;40.67;23.60;;;7.00;99.90;;;;;;4994514;28;20058;-82
2022/03/03 10:39:57;;;;;;;41.85;24.95;;;7.00;99.90;;;;;;4977240;28;20050;-88
2022/03/03 10:42:25;;;;;;;37.17;22.75;;;7.10;99.90;;;;;;4994944;28;20050;-81
2022/03/03 10:45:05;;;;;;;36.70;23.02;;;7.30;99.90;;;;;;4976979;28;20359;-82
2022/03/03 10:47:31;;;;;;;40.30;23.88;;;7.60;99.90;;;;;;4994561;28;20536;-78
2022/03/03 10:49:59;;;;;;;37.72;23.30;;;7.60;99.90;;;;;;4977353;28;20125;-79
2022/03/03 10:52:27;;;;;;;39.35;24.38;;;7.50;99.90;;;;;;4994166;28;20034;-78
2022/03/03 10:55:00;;;;;;;40.28;24.45;;;7.50;99.90;;;;;;4994548;28;20050;-81
2022/03/03 10:57:35;;;;;;;38.13;23.35;;;7.50;99.90;;;;;;5009532;28;20056;-78
2022/03/03 11:00:09;;;;;;;35.45;22.52;;;7.70;99.90;;;;;;4994716;28;20153;-83
2022/03/03 11:02:35;;;;;;;38.92;23.40;;;7.60;99.90;;;;;;4994270;28;20100;-81
2022/03/03 11:05:01;;;;;;;;;;;7.90;99.90;;;;;;4993462;28;20141;-83
2022/03/03 11:07:27;;;;;;;38.92;22.98;;;7.70;99.90;;;;;;4992700;28;20000;-77
2022/03/03 11:09:53;;;;;;;36.42;22.63;;;7.50;99.90;;;;;;4993419;28;20050;-76
2022/03/03 11:12:19;;;;;;;34.03;21.13;;;8.00;99.90;;;;;;4992557;28;20050;-77
2022/03/03 11:14:46;;;;;;;32.92;20.25;;;8.10;99.90;;;;;;4987949;28;20757;-73
2022/03/03 11:17:13;;;;;;;32.28;20.50;;;7.80;99.90;;;;;;4990902;28;20046;-79
2022/03/03 11:19:39;;;;;;;31.00;19.80;;;8.00;99.90;;;;;;4977980;28;20134;-77
2022/03/03 11:22:05;;;;;;;37.10;21.48;;;8.10;99.90;;;;;;4993642;28;20137;-77
2022/03/03 11:24:36;;;;;;;35.90;21.02;;;8.30;99.90;;;;;;4990313;28;20068;-74
2022/03/03 11:27:02;;;;;;;45.00;20.90;;;8.40;99.90;;;;;;5003176;28;20124;-77
2022/03/03 11:29:30;;;;;;;37.85;21.10;;;8.10;99.90;;;;;;5006452;28;20053;-77
2022/03/03 11:32:15;;;;;;;36.08;22.92;;;7.90;99.90;;;;;;5001097;28;20042;-76
2022/03/03 11:34:44;;;;;;;34.08;19.73;;;8.40;99.90;;;;;;5001709;28;20050;-77
2022/03/03 11:37:10;;;;;;;34.00;19.88;;;8.30;99.90;;;;;;5012345;28;20051;-76
2022/03/03 11:39:38;;;;;;;35.27;20.57;;;8.60;99.90;;;;;;5003801;28;20117;-75
2022/03/03 11:42:49;;;;;;;37.83;22.17;;;8.50;99.90;;;;;;4993550;28;20289;-76
2022/03/03 11:45:18;;;;;;;33.70;21.70;;;8.80;99.90;;;;;;4989047;28;20069;-77
2022/03/03 11:47:47;;;;;;;33.38;21.15;;;8.80;99.90;;;;;;4993798;28;20556;-76
2022/03/03 11:50:19;;;;;;;39.55;24.92;;;8.50;99.90;;;;;;4993875;28;20065;-81
2022/03/03 11:52:57;;;;;;;41.25;26.33;;;8.70;99.90;;;;;;4993194;28;20066;-82
2022/03/03 11:55:43;;;;;;;40.38;25.02;;;8.50;99.90;;;;;;4118679;28;10000975;-84
2022/03/03 11:58:17;;;;;;;41.97;25.90;;;8.60;99.90;;;;;;5022816;28;20065;-74
2022/03/03 12:01:05;;;;;;;39.15;24.73;;;8.50;99.90;;;;;;5032563;28;20052;-76
2022/03/03 12:03:32;;;;;;;43.15;25.20;;;8.80;99.90;;;;;;5032671;28;20050;-75
2022/03/03 12:06:08;;;;;;;37.20;24.35;;;8.80;99.90;;;;;;5032336;28;20037;-75
2022/03/03 12:08:43;;;;;;;39.10;23.70;;;9.90;99.90;;;;;;5032437;28;20485;-78
2022/03/03 12:11:15;;;;;;;38.30;23.60;;;8.50;99.90;;;;;;5032583;28;20084;-75
2022/03/03 12:13:41;;;;;;;37.97;24.35;;;9.70;99.90;;;;;;5032448;28;20041;-74
2022/03/03 12:16:34;;;;;;;35.72;23.25;;;8.70;99.90;;;;;;5032590;28;20110;-75
2022/03/03 12:19:00;;;;;;;38.67;24.00;;;9.10;99.90;;;;;;5032065;28;20080;-72
2022/03/03 12:21:36;;;;;;;39.75;25.90;;;9.70;99.90;;;;;;5032533;28;20490;-77
2022/03/03 12:24:14;;;;;;;39.10;24.40;;;9.10;99.90;;;;;;5031986;28;20060;-76
2022/03/03 12:26:59;;;;;;;45.75;25.85;;;8.40;99.90;;;;;;5032319;28;20053;-75
2022/03/03 12:29:33;;;;;;;40.53;26.25;;;9.80;99.90;;;;;;5031680;28;20060;-74
2022/03/03 12:32:26;;;;;;;38.42;24.58;;;8.70;99.90;;;;;;5031724;28;20085;-77
2022/03/03 12:34:53;;;;;;;37.67;23.55;;;8.60;99.90;;;;;;5032061;28;20037;-78
2022/03/03 12:37:19;;;;;;;39.22;24.48;;;8.90;99.90;;;;;;5030977;28;20045;-80
2022/03/03 12:39:52;;;;;;;38.00;24.20;;;9.50;99.90;;;;;;5032043;28;20505;-79
2022/03/03 12:42:23;;;;;;;31.33;21.52;;;10.00;99.90;;;;;;5032179;28;20045;-80
2022/03/03 12:44:54;;;;;;;37.22;23.15;;;8.80;99.90;;;;;;5032083;28;20524;-80
2022/03/03 12:47:34;;;;;;;33.05;21.77;;;9.00;99.90;;;;;;5032483;28;20049;-79
2022/03/03 12:50:02;;;;;;;35.72;21.85;;;9.40;99.90;;;;;;5032150;28;20049;-77
2022/03/03 12:52:28;;;;;;;32.22;21.85;;;9.20;99.90;;;;;;5032055;28;20497;-79
2022/03/03 12:54:55;;;;;;;35.58;22.45;;;10.70;99.90;;;;;;5031989;28;20091;-80
2022/03/03 12:57:34;;;;;;;34.97;22.23;;;9.90;99.90;;;;;;5031951;28;20136;-79
2022/03/03 13:00:18;;;;;;;33.78;22.10;;;10.10;99.90;;;;;;5032245;28;20472;-79
2022/03/03 13:03:00;;;;;;;36.30;22.08;;;10.20;99.90;;;;;;5031961;28;20045;-80
2022/03/03 13:05:39;;;;;;;36.70;23.27;;;10.40;99.90;;;;;;5031908;28;20111;-80
2022/03/03 13:08:08;;;;;;;32.85;21.00;;;10.50;99.90;;;;;;5030757;28;20050;-79
2022/03/03 13:10:36;;;;;;;34.75;22.23;;;10.30;99.90;;;;;;5032132;28;20508;-80
2022/03/03 13:13:02;;;;;;;33.05;22.75;;;11.10;99.90;;;;;;5031739;28;20037;-79
2022/03/03 13:15:37;;;;;;;36.05;22.65;;;10.70;99.90;;;;;;5031858;28;20048;-79
2022/03/03 13:18:08;;;;;;;34.72;22.55;;;10.60;99.90;;;;;;5031827;28;20072;-80
2022/03/03 13:20:42;;;;;;;32.67;22.33;;;11.00;99.90;;;;;;5031562;28;20065;-79
2022/03/03 13:23:13;;;;;;;33.60;20.95;;;11.20;99.90;;;;;;5031830;28;20501;-78
2022/03/03 13:25:41;;;;;;;30.10;20.50;;;10.90;99.90;;;;;;5032033;28;20056;-78
2022/03/03 13:28:08;;;;;;;32.17;20.52;;;12.90;99.90;;;;;;5031606;28;20120;-80
2022/03/03 13:30:34;;;;;;;34.28;21.95;;;11.70;99.90;;;;;;5031693;28;20054;-79
2022/03/03 13:33:00;;;;;;;29.63;20.70;;;11.70;99.90;;;;;;5031520;28;20116;-79
2022/03/03 13:35:36;;;;;;;;;;;11.20;99.90;;;;;;5030884;28;20127;-75
2022/03/03 13:38:06;;;;;;;31.52;20.13;;;11.00;99.90;;;;;;5031899;28;19928;-79
2022/03/03 13:40:34;;;;;;;28.00;19.85;;;11.00;99.90;;;;;;5031725;28;20053;-77
2022/03/03 13:43:01;;;;;;;29.98;20.65;;;12.50;99.90;;;;;;5035015;28;20456;-79